createdAt,value
2023-08-01T00:01:53.577Z,101177.78
2023-08-01T00:04:21.948Z,101183.72
2023-08-01T00:06:50.360Z,101181.91
2023-08-01T00:09:18.742Z,101184.75
2023-08-01T00:11:47.121Z,101183.44
2023-08-01T00:14:15.445Z,101187.00
2023-08-01T00:16:44.001Z,101182.56
2023-08-01T00:19:12.428Z,101178.00
2023-08-01T00:21:40.798Z,101177.16
2023-08-01T00:24:10.572Z,101175.91
2023-08-01T00:26:39.330Z,101171.28
2023-08-01T00:29:07.931Z,101173.00
2023-08-01T00:31:36.452Z,101169.31
2023-08-01T00:34:04.879Z,101166.25
2023-08-01T00:36:33.401Z,101163.53
2023-08-01T00:39:01.766Z,101158.84
2023-08-01T00:41:30.108Z,101166.38
2023-08-01T00:43:58.445Z,101163.16
2023-08-01T00:46:27.225Z,101173.00
2023-08-01T00:48:59.905Z,101170.78
2023-08-01T00:51:29.937Z,101173.97
2023-08-01T00:53:59.046Z,101168.56
2023-08-01T00:56:27.479Z,101164.50
2023-08-01T00:58:55.817Z,101169.03
2023-08-01T01:01:24.285Z,101164.38
2023-08-01T01:03:53.259Z,101163.63
2023-08-01T01:06:30.572Z,101168.56
2023-08-01T01:08:59.287Z,101162.88
2023-08-01T01:11:27.746Z,101173.59
2023-08-01T01:13:56.180Z,101167.13
2023-08-01T01:16:24.651Z,101173.88
2023-08-01T01:18:53.200Z,101171.78
2023-08-01T01:21:21.572Z,101170.88
2023-08-01T01:23:51.464Z,101177.41
2023-08-01T01:26:23.140Z,101172.56
2023-08-01T01:28:53.516Z,101175.47
2023-08-01T01:31:22.248Z,101167.72
2023-08-01T01:33:52.407Z,101172.13
2023-08-01T01:36:20.760Z,101170.63
2023-08-01T01:38:49.209Z,101168.28
2023-08-01T01:41:17.611Z,101169.72
2023-08-01T01:43:46.625Z,101173.72
2023-08-01T01:46:15.001Z,101178.03
2023-08-01T01:48:44.349Z,101182.06
2023-08-01T01:51:12.738Z,101184.59
2023-08-01T01:53:41.145Z,101183.41
2023-08-01T01:56:10.555Z,101179.34
2023-08-01T01:58:39.021Z,101187.78
2023-08-01T02:01:07.395Z,101184.56
2023-08-01T02:03:35.782Z,101196.53
2023-08-01T02:06:05.333Z,101191.72
2023-08-01T02:08:33.806Z,101191.28
2023-08-01T02:11:02.172Z,101194.88
2023-08-01T02:13:33.935Z,101201.84
2023-08-01T02:16:03.454Z,101202.31
2023-08-01T02:18:31.811Z,101213.88
2023-08-01T02:21:00.158Z,101208.56
2023-08-01T02:23:28.525Z,101209.22
2023-08-01T02:25:57.098Z,101203.41
2023-08-01T02:28:25.526Z,101207.59
2023-08-01T02:30:53.937Z,101210.09
2023-08-01T02:33:22.346Z,101210.50
2023-08-01T02:35:50.917Z,101214.28
2023-08-01T02:38:19.287Z,101221.84
2023-08-01T02:40:47.654Z,101226.44
2023-08-01T02:43:16.099Z,101222.16
2023-08-01T02:45:44.682Z,101221.38
2023-08-01T02:48:13.571Z,101223.53
2023-08-01T02:50:42.191Z,101220.72
2023-08-01T02:53:11.004Z,101228.44
2023-08-01T02:55:40.483Z,101223.75
2023-08-01T02:58:09.131Z,101227.56
2023-08-01T03:00:41.311Z,101230.31
2023-08-01T03:03:10.027Z,101224.66
2023-08-01T03:05:41.782Z,101224.97
2023-08-01T03:08:10.614Z,101229.59
2023-08-01T03:10:38.984Z,101230.34
2023-08-01T03:13:07.403Z,101233.16
2023-08-01T03:15:35.727Z,101231.16
2023-08-01T03:18:04.137Z,101236.06
2023-08-01T03:20:32.542Z,101250.19
2023-08-01T03:23:00.996Z,101242.31
2023-08-01T03:25:29.366Z,101255.22
2023-08-01T03:27:59.253Z,101260.19
2023-08-01T03:30:27.697Z,101250.69
2023-08-01T03:32:56.065Z,101254.59
2023-08-01T03:35:25.871Z,101255.88
2023-08-01T03:37:54.257Z,101269.59
2023-08-01T03:40:23.248Z,101267.41
2023-08-01T03:42:51.657Z,101260.47
2023-08-01T03:45:20.163Z,101261.72
2023-08-01T03:47:48.572Z,101268.31
2023-08-01T03:50:17.050Z,101260.53
2023-08-01T03:52:45.409Z,101271.50
2023-08-01T03:55:13.876Z,101274.56
2023-08-01T03:57:42.259Z,101272.91
2023-08-01T04:00:20.127Z,101276.59
2023-08-01T04:02:49.322Z,101274.00
2023-08-01T04:05:18.081Z,101278.97
2023-08-01T04:07:46.424Z,101279.16
2023-08-01T04:10:14.756Z,101273.97
2023-08-01T04:12:44.388Z,101275.03
2023-08-01T04:15:12.872Z,101270.00
2023-08-01T04:17:41.330Z,101276.69
2023-08-01T04:20:10.582Z,101275.56
2023-08-01T04:22:38.934Z,101277.28
2023-08-01T04:25:07.713Z,101283.44
2023-08-01T04:27:36.330Z,101283.34
2023-08-01T04:30:04.873Z,101285.25
2023-08-01T04:32:33.212Z,101286.31
2023-08-01T04:35:01.660Z,101282.84
2023-08-01T04:37:30.057Z,101281.28
2023-08-01T04:39:58.423Z,101282.13
2023-08-01T04:42:26.886Z,101288.41
2023-08-01T04:44:55.252Z,101294.72
2023-08-01T04:47:24.041Z,101290.66
2023-08-01T04:49:52.484Z,101301.41
2023-08-01T04:52:20.844Z,101298.13
2023-08-01T04:54:49.362Z,101301.94
2023-08-01T04:57:17.726Z,101297.53
2023-08-01T04:59:46.158Z,101308.34
2023-08-01T05:02:14.526Z,101304.03
2023-08-01T05:04:42.870Z,101306.03
2023-08-01T05:07:11.609Z,101301.78
2023-08-01T05:09:39.903Z,101297.72
2023-08-01T05:12:09.110Z,101298.03
2023-08-01T05:14:37.783Z,101299.09
2023-08-01T05:17:06.580Z,101300.72
2023-08-01T05:19:34.949Z,101300.72
2023-08-01T05:22:03.559Z,101299.09
2023-08-01T05:24:31.942Z,101295.53
2023-08-01T05:27:00.271Z,101296.41
2023-08-01T05:29:28.893Z,101284.09
2023-08-01T05:31:57.353Z,101291.38
2023-08-01T05:34:25.765Z,101297.03
2023-08-01T05:36:54.065Z,101292.72
2023-08-01T05:39:22.456Z,101294.56
2023-08-01T05:41:52.317Z,101283.19
2023-08-01T05:44:20.637Z,101285.03
2023-08-01T05:46:49.065Z,101283.19
2023-08-01T05:49:17.464Z,101286.03
2023-08-01T05:51:45.835Z,101295.06
2023-08-01T05:54:14.219Z,101290.56
2023-08-01T05:56:42.878Z,101298.84
2023-08-01T05:59:11.673Z,101294.75
2023-08-01T06:01:40.143Z,101301.19
2023-08-01T06:04:09.224Z,101297.63
2023-08-01T06:06:37.733Z,101300.47
2023-08-01T06:09:06.125Z,101295.97
2023-08-01T06:11:35.524Z,101299.69
2023-08-01T06:14:04.020Z,101305.31
2023-08-01T06:16:32.460Z,101308.06
2023-08-01T06:19:01.165Z,101298.63
2023-08-01T06:21:29.792Z,101307.78
2023-08-01T06:23:58.112Z,101307.00
2023-08-01T06:26:26.537Z,101304.56
2023-08-01T06:28:55.201Z,101302.03
2023-08-01T06:31:23.792Z,101313.00
2023-08-01T06:33:52.233Z,101309.56
2023-08-01T06:36:20.588Z,101307.03
2023-08-01T06:38:48.961Z,101310.81
2023-08-01T06:41:17.684Z,101312.78
2023-08-01T06:43:46.060Z,101316.50
2023-08-01T06:46:15.004Z,101317.59
2023-08-01T06:48:43.494Z,101310.66
2023-08-01T06:51:12.359Z,101309.22
2023-08-01T06:53:41.359Z,101308.50
2023-08-01T06:56:09.898Z,101311.28
2023-08-01T06:58:38.214Z,101305.91
2023-08-01T07:01:06.795Z,101304.25
2023-08-01T07:03:35.189Z,101308.13
2023-08-01T07:06:04.747Z,101304.72
2023-08-01T07:08:34.320Z,101302.28
2023-08-01T07:11:02.683Z,101302.34
2023-08-01T07:13:31.047Z,101307.00
2023-08-01T07:15:59.573Z,101308.81
2023-08-01T07:18:28.223Z,101300.78
2023-08-01T07:21:06.848Z,101302.72
2023-08-01T07:23:37.753Z,101305.50
2023-08-01T07:26:06.113Z,101299.50
2023-08-01T07:28:34.593Z,101297.84
2023-08-01T07:31:08.751Z,101305.09
2023-08-01T07:33:37.940Z,101297.19
2023-08-01T07:36:06.970Z,101301.84
2023-08-01T07:38:35.617Z,101302.88
2023-08-01T07:41:09.406Z,101287.81
2023-08-01T07:43:37.953Z,101299.56
2023-08-01T07:46:06.618Z,101302.28
2023-08-01T07:48:35.416Z,101301.41
2023-08-01T07:51:05.367Z,101291.75
2023-08-01T07:53:34.014Z,101288.44
2023-08-01T07:56:04.271Z,101287.69
2023-08-01T07:58:32.869Z,101284.25
2023-08-01T08:01:06.569Z,101292.31
2023-08-01T08:03:35.481Z,101291.59
2023-08-01T08:06:05.981Z,101289.88
2023-08-01T08:08:38.687Z,101288.16
2023-08-01T08:11:07.350Z,101283.00
2023-08-01T08:13:36.115Z,101288.44
2023-08-01T08:16:06.704Z,101285.97
2023-08-01T08:18:35.363Z,101284.22
2023-08-01T08:21:03.953Z,101287.81
2023-08-01T08:23:32.516Z,101286.19
2023-08-01T08:26:01.132Z,101286.25
2023-08-01T08:28:35.093Z,101291.66
2023-08-01T08:31:04.695Z,101292.75
2023-08-01T08:33:33.366Z,101294.56
2023-08-01T08:36:02.126Z,101305.34
2023-08-01T08:38:31.058Z,101295.44
2023-08-01T08:41:16.219Z,101292.63
2023-08-01T08:43:45.036Z,101292.47
2023-08-01T08:46:18.132Z,101298.53
2023-08-01T08:48:48.596Z,101303.84
2023-08-01T08:51:18.019Z,101302.03
2023-08-01T08:53:47.651Z,101305.66
2023-08-01T08:56:17.117Z,101308.25
2023-08-01T08:58:48.039Z,101302.25
2023-08-01T09:01:16.610Z,101306.88
2023-08-01T09:03:46.471Z,101311.44
2023-08-01T09:06:18.640Z,101303.31
2023-08-01T09:08:56.484Z,101304.91
2023-08-01T09:11:24.998Z,101304.06
2023-08-01T09:13:53.592Z,101299.66
2023-08-01T09:16:22.181Z,101293.47
2023-08-01T09:18:54.421Z,101290.72
2023-08-01T09:21:23.884Z,101291.66
2023-08-01T09:23:52.331Z,101292.69
2023-08-01T09:26:22.527Z,101289.22
2023-08-01T09:29:00.340Z,101295.44
2023-08-01T09:31:31.969Z,101296.38
2023-08-01T09:34:00.718Z,101291.88
2023-08-01T09:36:29.481Z,101287.56
2023-08-01T09:39:02.081Z,101282.22
2023-08-01T09:41:31.946Z,101282.22
2023-08-01T09:44:00.750Z,101286.75
2023-08-01T09:46:29.101Z,101285.81
2023-08-01T09:48:57.459Z,101275.25
2023-08-01T09:51:26.376Z,101273.44
2023-08-01T09:53:58.977Z,101276.00
2023-08-01T09:56:29.195Z,101282.22
2023-08-01T09:58:58.486Z,101279.44
2023-08-01T10:01:28.132Z,101284.81
2023-08-01T10:03:58.851Z,101284.03
2023-08-01T10:06:34.471Z,101282.22
2023-08-01T10:09:03.893Z,101280.41
2023-08-01T10:11:36.274Z,101274.09
2023-08-01T10:14:05.798Z,101279.59
2023-08-01T10:16:35.332Z,101275.25
2023-08-01T10:19:04.795Z,101275.25
2023-08-01T10:21:33.297Z,101271.72
2023-08-01T10:24:02.637Z,101274.31
2023-08-01T10:26:31.227Z,101274.22
2023-08-01T10:29:02.041Z,101269.03
2023-08-01T10:31:30.665Z,101273.44
2023-08-01T10:34:31.385Z,101275.25
2023-08-01T10:37:00.741Z,101268.97
2023-08-01T10:39:30.326Z,101269.91
2023-08-01T10:42:07.907Z,101278.88
2023-08-01T10:44:46.956Z,101284.25
2023-08-01T10:47:15.341Z,101277.22
2023-08-01T10:49:45.709Z,101273.78
2023-08-01T10:52:21.210Z,101276.56
2023-08-01T10:54:49.660Z,101277.34
2023-08-01T10:57:22.186Z,101274.75
2023-08-01T10:59:50.638Z,101281.91
2023-08-01T11:02:26.350Z,101282.00
2023-08-01T11:05:20.788Z,101277.56
2023-08-01T11:08:00.425Z,101264.19
2023-08-01T11:10:30.832Z,101266.06
2023-08-01T11:13:00.820Z,101277.06
2023-08-01T11:15:29.318Z,101278.00
2023-08-01T11:17:58.468Z,101284.22
2023-08-01T11:20:28.439Z,101280.63
2023-08-01T11:23:03.639Z,101285.09
2023-08-01T11:25:40.870Z,101282.34
2023-08-01T11:28:14.083Z,101291.16
2023-08-01T11:30:43.039Z,101284.03
2023-08-01T11:33:20.321Z,101287.78
2023-08-01T11:36:02.179Z,101294.94
2023-08-01T11:38:33.339Z,101299.41
2023-08-01T11:41:05.932Z,101302.22
2023-08-01T11:43:44.558Z,101295.41
2023-08-01T11:46:15.786Z,101294.63
2023-08-01T11:48:52.219Z,101295.69
2023-08-01T11:51:20.635Z,101296.72
2023-08-01T11:53:50.181Z,101305.44
2023-08-01T11:56:24.880Z,101299.09
2023-08-01T11:58:53.609Z,101304.28
2023-08-01T12:01:22.248Z,101306.06
2023-08-01T12:03:52.908Z,101301.69
2023-08-01T12:06:25.721Z,101303.63
2023-08-01T12:08:55.169Z,101318.03
2023-08-01T12:11:32.273Z,101315.44
2023-08-01T12:14:07.470Z,101320.06
2023-08-01T12:16:35.914Z,101315.66
2023-08-01T12:19:04.588Z,101315.69
2023-08-01T12:21:34.635Z,101310.50
2023-08-01T12:24:04.035Z,101313.38
2023-08-01T12:26:32.681Z,101314.31
2023-08-01T12:29:00.987Z,101324.22
2023-08-01T12:31:29.461Z,101321.75
2023-08-01T12:33:57.836Z,101324.53
2023-08-01T12:36:26.127Z,101327.50
2023-08-01T12:38:54.540Z,101339.22
2023-08-01T12:41:22.866Z,101331.38
2023-08-01T12:43:52.056Z,101333.97
2023-08-01T12:46:20.420Z,101334.09
2023-08-01T12:48:49.073Z,101336.03
2023-08-01T12:51:17.529Z,101336.06
2023-08-01T12:53:45.989Z,101339.75
2023-08-01T12:56:14.520Z,101343.41
2023-08-01T12:58:42.986Z,101339.09
2023-08-01T13:01:11.687Z,101340.88
2023-08-01T13:03:40.098Z,101342.66
2023-08-01T13:06:08.962Z,101349.03
2023-08-01T13:08:37.318Z,101347.41
2023-08-01T13:11:15.385Z,101347.50
2023-08-01T13:13:44.394Z,101345.63
2023-08-01T13:16:12.936Z,101352.84
2023-08-01T13:18:45.762Z,101350.22
2023-08-01T13:21:15.245Z,101346.81
2023-08-01T13:23:43.720Z,101348.59
2023-08-01T13:26:12.078Z,101355.91
2023-08-01T13:28:40.464Z,101362.22
2023-08-01T13:31:09.125Z,101354.28
2023-08-01T13:33:37.511Z,101359.56
2023-08-01T13:36:05.998Z,101356.00
2023-08-01T13:38:34.420Z,101359.56
2023-08-01T13:41:03.340Z,101357.81
2023-08-01T13:43:32.846Z,101364.84
2023-08-01T13:46:03.588Z,101363.91
2023-08-01T13:48:33.900Z,101372.78
2023-08-01T13:51:02.249Z,101377.13
2023-08-01T13:53:30.570Z,101381.59
2023-08-01T13:55:58.954Z,101383.34
2023-08-01T13:58:27.320Z,101379.75
2023-08-01T14:00:55.733Z,101374.25
2023-08-01T14:03:24.339Z,101376.91
2023-08-01T14:05:52.783Z,101378.69
2023-08-01T14:08:21.147Z,101375.97
2023-08-01T14:10:49.489Z,101383.91
2023-08-01T14:13:17.789Z,101371.41
2023-08-01T14:15:46.159Z,101380.28
2023-08-01T14:18:14.520Z,101381.19
2023-08-01T14:20:42.876Z,101379.41
2023-08-01T14:23:11.585Z,101372.28
2023-08-01T14:25:40.024Z,101381.97
2023-08-01T14:28:08.921Z,101385.59
2023-08-01T14:30:37.341Z,101390.84
2023-08-01T14:33:07.476Z,101388.97
2023-08-01T14:35:39.819Z,101389.81
2023-08-01T14:38:08.296Z,101403.06
2023-08-01T14:40:43.306Z,101398.41
2023-08-01T14:43:13.865Z,101407.22
2023-08-01T14:45:42.908Z,101400.81
2023-08-01T14:48:11.957Z,101405.91
2023-08-01T14:50:40.790Z,101405.78
2023-08-01T14:53:10.206Z,101414.47
2023-08-01T14:55:39.348Z,101409.91
2023-08-01T14:58:08.944Z,101412.47
2023-08-01T15:00:38.429Z,101409.59
2023-08-01T15:03:06.847Z,101421.97
2023-08-01T15:05:35.205Z,101421.72
2023-08-01T15:08:07.594Z,101417.81
2023-08-01T15:10:39.471Z,101420.09
2023-08-01T15:13:07.920Z,101419.75
2023-08-01T15:15:40.144Z,101422.06
2023-08-01T15:18:08.947Z,101419.06
2023-08-01T15:20:42.144Z,101423.44
2023-08-01T15:23:11.073Z,101422.41
2023-08-01T15:25:39.416Z,101430.22
2023-08-01T15:28:08.108Z,101425.75
2023-08-01T15:30:36.825Z,101435.09
2023-08-01T15:33:05.329Z,101432.19
2023-08-01T15:35:33.813Z,101430.28
2023-08-01T15:38:02.201Z,101438.03
2023-08-01T15:40:30.604Z,101433.28
2023-08-01T15:42:59.391Z,101436.41
2023-08-01T15:45:27.739Z,101434.78
2023-08-01T15:47:56.139Z,101436.22
2023-08-01T15:50:24.503Z,101432.31
2023-08-01T15:52:52.869Z,101426.22
2023-08-01T15:55:21.230Z,101427.34
2023-08-01T15:57:49.586Z,101431.19
2023-08-01T16:00:18.145Z,101433.41
2023-08-01T16:02:47.388Z,101427.88
2023-08-01T16:05:15.841Z,101425.88
2023-08-01T16:07:44.170Z,101434.34
2023-08-01T16:10:12.499Z,101434.84
2023-08-01T16:12:40.921Z,101432.56
2023-08-01T16:15:10.180Z,101433.00
2023-08-01T16:17:38.931Z,101433.28
2023-08-01T16:20:07.955Z,101438.94
2023-08-01T16:22:36.423Z,101438.31
2023-08-01T16:25:04.858Z,101433.09
2023-08-01T16:27:33.186Z,101434.81
2023-08-01T16:30:01.514Z,101433.47
2023-08-01T16:32:29.933Z,101436.88
2023-08-01T16:34:58.288Z,101442.84
2023-08-01T16:37:26.742Z,101435.72
2023-08-01T16:39:55.154Z,101431.28
2023-08-01T16:42:23.643Z,101434.22
2023-08-01T16:44:52.048Z,101430.41
2023-08-01T16:47:35.729Z,101439.25
2023-08-01T16:50:17.108Z,101435.34
2023-08-01T16:52:45.580Z,101435.03
2023-08-01T16:55:14.189Z,101438.06
2023-08-01T16:57:42.533Z,101426.41
2023-08-01T17:00:12.451Z,101424.81
2023-08-01T17:02:41.224Z,101429.44
2023-08-01T17:05:10.567Z,101426.91
2023-08-01T17:07:38.924Z,101430.03
2023-08-01T17:10:07.821Z,101432.34
2023-08-01T17:12:36.415Z,101421.19
2023-08-01T17:15:05.748Z,101425.28
2023-08-01T17:17:34.188Z,101423.66
2023-08-01T17:20:05.404Z,101429.44
2023-08-01T17:22:33.789Z,101423.72
2023-08-01T17:25:02.111Z,101433.06
2023-08-01T17:27:30.458Z,101421.53
2023-08-01T17:29:58.856Z,101420.47
2023-08-01T17:32:27.298Z,101421.44
2023-08-01T17:34:55.709Z,101424.50
2023-08-01T17:37:24.236Z,101422.38
2023-08-01T17:39:52.641Z,101415.84
2023-08-01T17:42:21.032Z,101426.31
2023-08-01T17:44:49.359Z,101422.97
2023-08-01T17:47:18.020Z,101418.56
2023-08-01T17:49:47.420Z,101419.63
2023-08-01T17:52:15.982Z,101413.63
2023-08-01T17:54:44.361Z,101416.44
2023-08-01T17:57:12.743Z,101412.38
2023-08-01T17:59:41.327Z,101420.63
2023-08-01T18:02:10.227Z,101417.88
2023-08-01T18:04:38.605Z,101414.66
2023-08-01T18:07:07.122Z,101405.72
2023-08-01T18:09:35.480Z,101407.13
2023-08-01T18:12:03.844Z,101406.56
2023-08-01T18:14:32.212Z,101401.50
2023-08-01T18:17:00.596Z,101404.22
2023-08-01T18:19:29.032Z,101390.72
2023-08-01T18:21:57.428Z,101392.97
2023-08-01T18:24:25.891Z,101386.25
2023-08-01T18:26:54.265Z,101391.38
2023-08-01T18:29:22.562Z,101385.03
2023-08-01T18:31:50.930Z,101382.19
2023-08-01T18:34:19.275Z,101383.22
2023-08-01T18:36:47.768Z,101381.47
2023-08-01T18:39:16.128Z,101377.31
2023-08-01T18:41:44.900Z,101381.47
2023-08-01T18:44:13.259Z,101381.50
2023-08-01T18:46:43.765Z,101373.41
2023-08-01T18:49:12.477Z,101377.25
2023-08-01T18:51:40.933Z,101366.44
2023-08-01T18:54:10.664Z,101365.75
2023-08-01T18:56:39.832Z,101369.47
2023-08-01T18:59:08.424Z,101373.69
2023-08-01T19:01:36.837Z,101374.50
2023-08-01T19:04:05.333Z,101369.22
2023-08-01T19:06:33.935Z,101365.16
2023-08-01T19:09:20.243Z,101359.97
2023-08-01T19:11:49.960Z,101356.06
2023-08-01T19:14:18.439Z,101359.13
2023-08-01T19:16:47.386Z,101356.56
2023-08-01T19:19:15.812Z,101344.19
2023-08-01T19:21:44.315Z,101346.63
2023-08-01T19:24:12.722Z,101338.94
2023-08-01T19:26:41.896Z,101341.03
2023-08-01T19:29:11.758Z,101341.91
2023-08-01T19:31:40.161Z,101337.56
2023-08-01T19:34:08.927Z,101330.19
2023-08-01T19:36:37.266Z,101325.59
2023-08-01T19:39:05.723Z,101324.63
2023-08-01T19:41:36.053Z,101327.47
2023-08-01T19:44:04.460Z,101325.84
2023-08-01T19:46:32.883Z,101324.69
2023-08-01T19:49:01.274Z,101317.13
2023-08-01T19:51:29.851Z,101329.06
2023-08-01T19:53:58.308Z,101317.59
2023-08-01T19:56:26.678Z,101314.66
2023-08-01T19:58:55.118Z,101322.13
2023-08-01T20:01:23.897Z,101317.16
2023-08-01T20:03:52.498Z,101323.25
2023-08-01T20:06:21.607Z,101322.59
2023-08-01T20:08:50.051Z,101323.88
2023-08-01T20:11:18.657Z,101326.03
2023-08-01T20:13:47.082Z,101324.59
2023-08-01T20:16:15.548Z,101329.78
2023-08-01T20:18:43.963Z,101320.47
2023-08-01T20:21:12.447Z,101317.59
2023-08-01T20:23:40.823Z,101307.59
2023-08-01T20:26:10.203Z,101315.13
2023-08-01T20:28:38.731Z,101315.28
2023-08-01T20:31:07.166Z,101307.00
2023-08-01T20:33:36.495Z,101315.19
2023-08-01T20:36:05.074Z,101311.44
2023-08-01T20:38:33.430Z,101310.88
2023-08-01T20:41:01.822Z,101311.47
2023-08-01T20:43:30.445Z,101301.91
2023-08-01T20:45:58.882Z,101303.19
2023-08-01T20:48:27.301Z,101302.47
2023-08-01T20:50:55.766Z,101298.88
2023-08-01T20:53:24.208Z,101297.28
2023-08-01T20:55:52.714Z,101299.59
2023-08-01T20:58:23.877Z,101301.00
2023-08-01T21:01:05.398Z,101311.19
2023-08-01T21:03:33.860Z,101315.47
2023-08-01T21:06:02.316Z,101311.19
2023-08-01T21:08:30.735Z,101304.03
2023-08-01T21:10:59.126Z,101310.03
2023-08-01T21:13:27.493Z,101315.38
2023-08-01T21:15:55.902Z,101307.75
2023-08-01T21:18:27.209Z,101305.47
2023-08-01T21:20:55.551Z,101309.03
2023-08-01T21:23:24.110Z,101302.84
2023-08-01T21:25:52.459Z,101305.00
2023-08-01T21:28:20.889Z,101307.44
2023-08-01T21:30:49.266Z,101306.88
2023-08-01T21:33:17.668Z,101304.16
2023-08-01T21:35:46.114Z,101300.53
2023-08-01T21:38:14.766Z,101301.97
2023-08-01T21:40:43.230Z,101302.16
2023-08-01T21:43:11.762Z,101309.75
2023-08-01T21:45:40.183Z,101308.44
2023-08-01T21:48:08.990Z,101300.00
2023-08-01T21:50:37.370Z,101303.41
2023-08-01T21:53:05.750Z,101304.03
2023-08-01T21:55:34.180Z,101292.72
2023-08-01T21:58:02.606Z,101300.34
2023-08-01T22:00:31.026Z,101299.31
2023-08-01T22:02:59.563Z,101290.56
2023-08-01T22:05:28.092Z,101297.88
2023-08-01T22:07:56.552Z,101296.56
2023-08-01T22:10:28.454Z,101293.41
2023-08-01T22:12:57.732Z,101304.72
2023-08-01T22:15:26.965Z,101290.38
2023-08-01T22:17:55.594Z,101290.78
2023-08-01T22:20:24.404Z,101286.22
2023-08-01T22:22:52.872Z,101297.22
2023-08-01T22:25:21.423Z,101295.16
2023-08-01T22:27:49.899Z,101286.00
2023-08-01T22:30:18.375Z,101283.03
2023-08-01T22:32:46.841Z,101286.41
2023-08-01T22:35:15.321Z,101288.28
2023-08-01T22:37:43.845Z,101295.56
2023-08-01T22:40:12.470Z,101300.91
2023-08-01T22:42:40.819Z,101296.31
2023-08-01T22:45:09.972Z,101297.44
2023-08-01T22:47:41.724Z,101290.47
2023-08-01T22:50:10.985Z,101305.47
2023-08-01T22:52:39.391Z,101295.59
2023-08-01T22:55:10.590Z,101302.44
2023-08-01T22:57:38.920Z,101294.13
2023-08-01T23:00:08.330Z,101287.88
2023-08-01T23:02:37.043Z,101290.25
2023-08-01T23:05:06.184Z,101296.66
2023-08-01T23:07:34.702Z,101289.75
2023-08-01T23:10:07.181Z,101281.97
2023-08-01T23:12:36.017Z,101287.28
2023-08-01T23:15:04.969Z,101283.84
2023-08-01T23:17:34.776Z,101283.56
2023-08-01T23:20:03.408Z,101287.72
2023-08-01T23:22:31.882Z,101292.50
2023-08-01T23:25:00.382Z,101278.16
2023-08-01T23:27:28.879Z,101289.00
2023-08-01T23:29:57.321Z,101286.03
2023-08-01T23:32:25.819Z,101277.38
2023-08-01T23:34:54.143Z,101285.75
2023-08-01T23:37:22.516Z,101286.78
2023-08-01T23:39:50.878Z,101281.03
2023-08-01T23:42:19.501Z,101282.78
2023-08-01T23:44:48.119Z,101274.28
2023-08-01T23:47:16.573Z,101271.69
2023-08-01T23:49:44.941Z,101279.56
2023-08-01T23:52:13.308Z,101283.44
2023-08-01T23:54:41.740Z,101277.75
2023-08-01T23:57:10.738Z,101285.31
2023-08-01T23:59:39.105Z,101287.91
